Time;durP1;ratioP1;P1;durP2;ratioP2;P2;SDS_P1;SDS_P2;PMS_P1;PMS_P2;Temp;Humidity;BMP_temperature;BMP_pressure;BME280_temperature;BME280_humidity;BME280_pressure;Samples;Min_cycle;Max_cycle;Signal;HPM_P1;HPM_P2
2023/06/17 06:35:56;;;;;;;5.18;3.28;;;;;;;;;;4750912;30;20087;-83
2023/06/17 06:38:22;;;;;;;6.85;3.67;;;;;;;;;;4787140;24;20529;-81
2023/06/17 06:40:49;;;;;;;4.25;2.70;;;;;;;;;;4772917;30;20107;-81
2023/06/17 06:43:15;;;;;;;5.65;3.65;;;;;;;;;;4757619;30;20036;-84
2023/06/17 06:45:41;;;;;;;11.80;4.32;;;;;;;;;;4749600;30;20032;-84
2023/06/17 06:48:07;;;;;;;5.75;2.85;;;;;;;;;;4760071;30;20089;-85
2023/06/17 07:07:06;;;;;;;5.95;3.47;;;;;;;;;;2380256;24;20081;-87
2023/06/17 09:37:41;;;;;;;7.82;2.88;;;;;;;;;;4761940;30;20060;-88
2023/06/17 09:40:15;;;;;;;6.80;3.10;;;;;;;;;;4751191;30;20047;-85
2023/06/17 09:42:46;;;;;;;5.45;2.90;;;;;;;;;;4766045;30;20055;-85
2023/06/17 09:45:12;;;;;;;7.97;3.20;;;;;;;;;;4766915;30;20405;-87
2023/06/17 09:47:53;;;;;;;6.63;2.83;;;;;;;;;;4741572;30;20119;-86
2023/06/17 09:56:01;;;;;;;8.32;3.10;;;;;;;;;;1084045;24;20349;-84
2023/06/17 09:58:34;;;;;;;5.22;3.10;;;;;;;;;;4769023;30;20138;-83
2023/06/17 10:03:55;;;;;;;6.45;3.30;;;;;;;;;;4770366;30;20477;-86
2023/06/17 10:06:21;;;;;;;4.43;2.70;;;;;;;;;;4768192;29;20110;-85
2023/06/17 10:08:48;;;;;;;7.85;3.17;;;;;;;;;;4773682;30;20041;-83
2023/06/17 10:11:17;;;;;;;10.00;2.83;;;;;;;;;;4787277;30;20088;-84
2023/06/17 10:13:45;;;;;;;5.53;2.83;;;;;;;;;;4774704;30;20043;-88
2023/06/17 10:16:15;;;;;;;6.43;2.75;;;;;;;;;;4783194;30;20428;-85
2023/06/17 10:18:43;;;;;;;6.72;3.20;;;;;;;;;;4765487;30;20047;-84
2023/06/17 10:21:10;;;;;;;7.78;2.47;;;;;;;;;;4762438;30;20046;-85
2023/06/17 10:23:37;;;;;;;9.48;3.05;;;;;;;;;;4758368;30;20039;-83
2023/06/17 10:26:07;;;;;;;5.28;2.70;;;;;;;;;;4771537;30;20039;-83
2023/06/17 10:28:46;;;;;;;6.75;3.10;;;;;;;;;;4759635;30;20040;-89
2023/06/17 10:31:29;;;;;;;6.68;3.20;;;;;;;;;;4776832;30;20040;-82
2023/06/17 10:33:57;;;;;;;5.20;2.75;;;;;;;;;;4768808;30;20740;-82
2023/06/17 10:36:24;;;;;;;5.80;3.17;;;;;;;;;;4759225;30;20039;-82
2023/06/17 10:39:10;;;;;;;5.20;2.80;;;;;;;;;;4777370;30;20043;-81
2023/06/17 10:41:57;;;;;;;6.40;2.55;;;;;;;;;;4778541;30;20506;-81
2023/06/17 10:44:26;;;;;;;7.25;2.75;;;;;;;;;;4789906;29;20039;-82
2023/06/17 10:46:52;;;;;;;6.63;2.20;;;;;;;;;;4758418;30;20051;-83
2023/06/17 10:49:19;;;;;;;3.58;2.30;;;;;;;;;;4796120;24;20070;-85
2023/06/17 10:51:46;;;;;;;6.78;2.70;;;;;;;;;;4755694;30;20467;-83
2023/06/17 10:54:12;;;;;;;4.28;2.05;;;;;;;;;;4770953;30;20044;-87
2023/06/17 10:56:51;;;;;;;5.40;2.30;;;;;;;;;;4751959;30;20094;-85
2023/06/17 10:59:28;;;;;;;7.65;2.10;;;;;;;;;;4764292;30;20032;-86
2023/06/17 11:02:01;;;;;;;4.80;2.45;;;;;;;;;;4755598;30;20043;-86
2023/06/17 11:04:31;;;;;;;4.50;1.90;;;;;;;;;;4762986;30;20054;-85
2023/06/17 11:07:02;;;;;;;5.90;2.75;;;;;;;;;;4767530;30;20028;-86
2023/06/17 11:09:29;;;;;;;6.10;2.67;;;;;;;;;;4758314;30;20039;-85
2023/06/17 11:11:55;;;;;;;4.75;2.10;;;;;;;;;;4760527;30;20035;-85
2023/06/17 11:14:22;;;;;;;5.80;2.40;;;;;;;;;;4749703;30;20127;-84
2023/06/17 11:16:51;;;;;;;4.88;2.40;;;;;;;;;;4752581;30;20482;-84
2023/06/17 11:19:17;;;;;;;4.85;2.42;;;;;;;;;;4761331;30;20048;-84
2023/06/17 11:21:43;;;;;;;4.03;2.42;;;;;;;;;;4744971;30;20046;-85
2023/06/17 11:24:10;;;;;;;7.13;2.67;;;;;;;;;;4758975;30;20047;-85
2023/06/17 11:26:36;;;;;;;5.05;2.58;;;;;;;;;;4734317;30;20039;-84
2023/06/17 11:29:04;;;;;;;3.88;2.45;;;;;;;;;;4747276;30;20044;-83
2023/06/17 11:31:38;;;;;;;6.28;2.28;;;;;;;;;;4751067;30;20383;-84
2023/06/17 11:34:06;;;;;;;5.90;2.22;;;;;;;;;;4764903;30;20043;-83
2023/06/17 11:36:34;;;;;;;6.72;2.63;;;;;;;;;;4746440;30;20024;-84
2023/06/17 11:39:00;;;;;;;5.28;2.05;;;;;;;;;;4745433;30;20094;-83
2023/06/17 11:41:27;;;;;;;6.97;2.00;;;;;;;;;;4755653;30;20600;-84
2023/06/17 11:43:53;;;;;;;4.10;2.10;;;;;;;;;;4749648;30;20135;-84
2023/06/17 11:46:22;;;;;;;3.50;2.30;;;;;;;;;;4744023;30;20040;-83
2023/06/17 11:48:48;;;;;;;3.63;1.90;;;;;;;;;;4750326;30;20120;-83
2023/06/17 11:51:18;;;;;;;8.60;1.88;;;;;;;;;;4770947;30;20039;-85
2023/06/17 11:53:45;;;;;;;5.53;2.28;;;;;;;;;;4748691;30;20048;-84
2023/06/17 11:56:11;;;;;;;6.55;2.30;;;;;;;;;;4752676;30;20082;-84
2023/06/17 11:58:39;;;;;;;3.15;2.08;;;;;;;;;;4739127;30;20040;-83
2023/06/17 12:01:06;;;;;;;4.00;2.53;;;;;;;;;;4765308;30;20039;-83
2023/06/17 12:03:32;;;;;;;5.95;2.40;;;;;;;;;;4751841;30;20035;-83
2023/06/17 12:05:59;;;;;;;5.20;2.15;;;;;;;;;;4751212;30;20482;-83
2023/06/17 12:08:31;;;;;;;4.45;2.63;;;;;;;;;;4752016;30;20036;-83
2023/06/17 12:10:57;;;;;;;4.38;2.20;;;;;;;;;;4770061;30;20035;-83
2023/06/17 12:13:23;;;;;;;4.57;2.30;;;;;;;;;;4752031;30;20045;-83
2023/06/17 12:15:49;;;;;;;5.95;2.35;;;;;;;;;;4752283;30;20390;-83
2023/06/17 12:18:15;;;;;;;6.82;2.30;;;;;;;;;;4751957;30;20031;-84
2023/06/17 12:20:48;;;;;;;4.50;2.13;;;;;;;;;;4750303;30;20043;-83
2023/06/17 12:23:15;;;;;;;3.33;2.10;;;;;;;;;;4754849;30;20039;-83
2023/06/17 12:25:41;;;;;;;5.00;2.00;;;;;;;;;;4767757;30;20855;-82
2023/06/17 12:28:07;;;;;;;4.43;2.13;;;;;;;;;;4750738;30;20101;-82
2023/06/17 12:30:34;;;;;;;3.97;2.30;;;;;;;;;;4762024;30;20052;-83
2023/06/17 12:33:00;;;;;;;6.43;1.90;;;;;;;;;;4765287;30;20090;-83
2023/06/17 12:35:27;;;;;;;5.05;2.03;;;;;;;;;;4764445;30;20028;-82
2023/06/17 12:37:55;;;;;;;4.32;2.13;;;;;;;;;;4752434;30;20039;-83
2023/06/17 12:40:21;;;;;;;4.45;1.83;;;;;;;;;;4750984;30;20044;-82
2023/06/17 12:42:47;;;;;;;3.53;2.30;;;;;;;;;;4745386;30;20043;-83
2023/06/17 12:45:13;;;;;;;5.72;2.03;;;;;;;;;;4746989;30;20054;-82
2023/06/17 12:47:39;;;;;;;3.08;1.92;;;;;;;;;;4767705;30;20391;-82
2023/06/17 12:50:06;;;;;;;7.30;2.50;;;;;;;;;;4751828;30;20549;-82
2023/06/17 12:52:33;;;;;;;4.72;1.75;;;;;;;;;;4751193;30;20067;-82
2023/06/17 12:55:00;;;;;;;5.45;2.20;;;;;;;;;;4751485;30;20040;-82
2023/06/17 12:57:26;;;;;;;6.68;1.83;;;;;;;;;;4759204;30;20040;-82
2023/06/17 12:59:52;;;;;;;7.72;2.03;;;;;;;;;;4751371;30;20109;-82
2023/06/17 13:02:18;;;;;;;4.38;2.05;;;;;;;;;;4750866;30;20040;-82
2023/06/17 13:04:44;;;;;;;3.97;2.20;;;;;;;;;;4749392;30;20388;-83
2023/06/17 13:07:11;;;;;;;4.15;2.40;;;;;;;;;;4767196;30;20046;-83
2023/06/17 13:09:37;;;;;;;2.72;1.80;;;;;;;;;;4749593;30;20047;-83
2023/06/17 13:12:04;;;;;;;5.55;1.80;;;;;;;;;;4762381;30;20621;-82
2023/06/17 13:14:30;;;;;;;5.72;2.60;;;;;;;;;;4746575;30;20077;-82
2023/06/17 13:16:56;;;;;;;5.07;2.30;;;;;;;;;;4748606;30;20051;-82
2023/06/17 13:19:23;;;;;;;11.75;2.50;;;;;;;;;;4744237;30;20061;-82
2023/06/17 13:21:49;;;;;;;5.57;1.70;;;;;;;;;;4738784;30;20050;-82
2023/06/17 13:24:16;;;;;;;7.25;1.80;;;;;;;;;;4747887;30;20082;-82
2023/06/17 13:26:42;;;;;;;4.30;1.88;;;;;;;;;;4767117;30;20047;-82
2023/06/17 13:29:08;;;;;;;3.50;2.08;;;;;;;;;;4742183;30;20072;-83
2023/06/17 13:31:34;;;;;;;3.85;2.03;;;;;;;;;;4751313;30;20032;-82
2023/06/17 13:34:01;;;;;;;5.82;1.92;;;;;;;;;;4748414;30;20411;-83
2023/06/17 13:36:28;;;;;;;5.60;1.90;;;;;;;;;;4767392;30;20032;-82
2023/06/17 13:38:55;;;;;;;5.43;1.90;;;;;;;;;;4748880;30;20855;-82
2023/06/17 13:41:21;;;;;;;3.63;1.92;;;;;;;;;;4750995;30;20823;-83
2023/06/17 13:43:47;;;;;;;2.78;1.80;;;;;;;;;;4745028;30;20054;-82
2023/06/17 13:46:13;;;;;;;4.65;1.95;;;;;;;;;;4766630;30;20556;-82
2023/06/17 13:48:40;;;;;;;7.75;1.90;;;;;;;;;;4750144;30;20367;-82
2023/06/17 13:51:06;;;;;;;4.05;1.85;;;;;;;;;;4750460;30;20108;-83
2023/06/17 13:53:32;;;;;;;4.57;2.10;;;;;;;;;;4757020;30;20036;-82
2023/06/17 13:55:59;;;;;;;3.17;1.70;;;;;;;;;;4750339;30;20040;-83
2023/06/17 13:58:25;;;;;;;4.60;1.90;;;;;;;;;;4765984;30;20085;-82
2023/06/17 14:00:51;;;;;;;3.90;1.85;;;;;;;;;;4767129;30;20047;-82
2023/06/17 14:03:17;;;;;;;3.80;1.40;;;;;;;;;;4766070;30;20032;-83
2023/06/17 14:05:43;;;;;;;3.22;1.60;;;;;;;;;;4747563;30;20567;-83
2023/06/17 14:08:09;;;;;;;7.63;2.00;;;;;;;;;;4748243;30;20038;-82
2023/06/17 14:10:35;;;;;;;3.28;1.90;;;;;;;;;;4750746;30;20098;-82
2023/06/17 14:13:02;;;;;;;6.20;1.92;;;;;;;;;;4759982;30;20032;-81
2023/06/17 14:15:28;;;;;;;2.90;1.77;;;;;;;;;;4750294;30;20040;-82
2023/06/17 14:17:54;;;;;;;4.70;1.90;;;;;;;;;;4746283;30;20040;-82
2023/06/17 14:20:20;;;;;;;4.78;2.10;;;;;;;;;;4750051;30;20475;-82
2023/06/17 14:22:46;;;;;;;4.85;2.28;;;;;;;;;;4748043;30;20528;-82
2023/06/17 14:25:12;;;;;;;4.30;2.00;;;;;;;;;;4745611;30;20079;-82
2023/06/17 14:27:42;;;;;;;4.10;1.70;;;;;;;;;;4744281;30;20043;-82
2023/06/17 14:30:12;;;;;;;3.92;1.70;;;;;;;;;;4744900;30;20163;-82
2023/06/17 14:32:39;;;;;;;3.00;1.77;;;;;;;;;;4743130;30;20035;-83
2023/06/17 14:35:05;;;;;;;3.40;1.73;;;;;;;;;;4747141;30;20044;-82
2023/06/17 14:37:32;;;;;;;4.10;1.90;;;;;;;;;;4749516;30;20077;-82
2023/06/17 14:39:58;;;;;;;4.57;1.80;;;;;;;;;;4745093;30;20072;-82
2023/06/17 14:42:25;;;;;;;5.75;2.10;;;;;;;;;;4747029;30;20753;-82
2023/06/17 14:44:51;;;;;;;3.90;1.65;;;;;;;;;;4749314;30;20039;-82
2023/06/17 14:47:17;;;;;;;6.95;2.58;;;;;;;;;;4740342;30;20052;-82
2023/06/17 14:49:43;;;;;;;6.13;1.80;;;;;;;;;;4747603;30;20158;-82
2023/06/17 14:52:09;;;;;;;6.20;1.55;;;;;;;;;;4745291;30;20032;-82
2023/06/17 14:54:35;;;;;;;6.72;1.80;;;;;;;;;;4768283;30;20044;-81
2023/06/17 14:57:01;;;;;;;3.97;1.52;;;;;;;;;;4748314;30;20037;-81
2023/06/17 14:59:27;;;;;;;3.28;1.73;;;;;;;;;;4751965;30;20138;-82
2023/06/17 15:01:53;;;;;;;4.80;2.03;;;;;;;;;;4736446;30;20047;-82
2023/06/17 15:04:19;;;;;;;3.63;1.98;;;;;;;;;;4744663;30;20052;-82
2023/06/17 15:06:46;;;;;;;4.03;1.67;;;;;;;;;;4753562;30;20067;-82
2023/06/17 15:09:24;;;;;;;2.65;1.35;;;;;;;;;;4750589;30;20438;-82
2023/06/17 15:11:52;;;;;;;5.40;2.10;;;;;;;;;;4759663;30;20482;-82
2023/06/17 15:14:18;;;;;;;3.17;1.65;;;;;;;;;;4744890;30;20040;-82
2023/06/17 15:16:44;;;;;;;3.30;1.50;;;;;;;;;;4753129;30;20031;-82
2023/06/17 15:19:10;;;;;;;4.32;1.60;;;;;;;;;;4768121;30;20066;-82
2023/06/17 15:39:21;;;;;;;3.70;1.90;;;;;;;;;;4765453;30;20067;-82
2023/06/17 15:42:12;;;;;;;4.88;2.10;;;;;;;;;;4737441;30;20519;-82
2023/06/17 15:45:32;;;;;;;4.72;2.03;;;;;;;;;;4774294;24;20058;-82
2023/06/17 15:48:08;;;;;;;5.68;1.77;;;;;;;;;;4777192;30;20054;-81
2023/06/17 15:50:58;;;;;;;3.75;1.85;;;;;;;;;;4763340;30;20070;-82
2023/06/17 15:54:01;;;;;;;4.68;2.00;;;;;;;;;;4787460;29;20463;-82
2023/06/17 15:56:45;;;;;;;3.85;2.03;;;;;;;;;;4766891;30;20035;-81
2023/06/17 15:59:12;;;;;;;3.90;2.05;;;;;;;;;;4765195;30;20048;-81
2023/06/17 16:01:48;;;;;;;;;;;;;;;;;;;;;
2023/06/17 16:04:38;;;;;;;5.15;2.70;;;;;;;;;;4782609;29;20038;-81
2023/06/17 16:07:17;;;;;;;3.75;1.90;;;;;;;;;;4776202;30;20043;-82
2023/06/17 16:09:55;;;;;;;6.25;2.10;;;;;;;;;;4765768;30;20888;-81
2023/06/17 16:18:39;;;;;;;4.20;2.08;;;;;;;;;;4777982;30;20059;-83
2023/06/17 16:21:05;;;;;;;4.40;1.92;;;;;;;;;;4766352;30;20044;-82
2023/06/17 16:23:40;;;;;;;4.63;2.30;;;;;;;;;;4766191;30;20039;-82
2023/06/17 16:26:11;;;;;;;4.90;2.50;;;;;;;;;;4781105;30;20035;-83
2023/06/17 16:28:38;;;;;;;4.10;2.47;;;;;;;;;;4775454;30;20443;-84
2023/06/17 16:31:04;;;;;;;4.72;2.70;;;;;;;;;;4775151;30;20076;-83
2023/06/17 16:33:30;;;;;;;5.10;2.83;;;;;;;;;;4769534;30;20084;-84
2023/06/17 16:36:05;;;;;;;5.95;3.42;;;;;;;;;;4766176;30;20040;-84
2023/06/17 16:38:31;;;;;;;6.22;3.00;;;;;;;;;;4783896;30;20047;-84
2023/06/17 16:40:57;;;;;;;7.72;3.28;;;;;;;;;;4776390;30;20046;-85
2023/06/17 16:43:23;;;;;;;8.35;3.17;;;;;;;;;;4785463;30;20051;-83
2023/06/17 16:45:49;;;;;;;7.05;3.35;;;;;;;;;;4767443;30;20644;-82
2023/06/17 16:48:15;;;;;;;4.53;2.85;;;;;;;;;;4785394;30;20148;-84
2023/06/17 16:50:41;;;;;;;4.70;2.95;;;;;;;;;;4779964;30;20637;-84
2023/06/17 17:02:27;;;;;;;6.32;2.90;;;;;;;;;;4629510;28;20064;-83
2023/06/17 17:05:11;;;;;;;5.57;3.10;;;;;;;;;;4755107;30;20076;-83
2023/06/17 18:35:05;;;;;;;8.38;4.60;;;;;;;;;;4768631;30;20515;-83
2023/06/17 18:40:49;;;;;;;;;;;;;;;;;;;;;
2023/06/17 18:43:20;;;;;;;6.90;4.45;;;;;;;;;;4770168;30;20047;-84
2023/06/17 18:45:46;;;;;;;6.97;4.25;;;;;;;;;;4747357;30;20047;-85
2023/06/17 18:48:12;;;;;;;10.07;4.07;;;;;;;;;;4758927;30;20039;-84
2023/06/17 18:50:38;;;;;;;7.75;3.92;;;;;;;;;;4773431;30;20027;-85
2023/06/17 19:03:20;;;;;;;7.78;3.58;;;;;;;;;;4743338;30;20110;-84
2023/06/17 19:05:46;;;;;;;8.90;4.05;;;;;;;;;;4749666;30;20037;-82
2023/06/17 19:08:12;;;;;;;6.88;4.15;;;;;;;;;;4740952;30;20037;-82
2023/06/17 19:13:28;;;;;;;12.23;6.50;;;;;;;;;;4779528;27;20109;-83
2023/06/17 19:15:57;;;;;;;10.18;7.00;;;;;;;;;;4730466;30;20139;-82
2023/06/17 19:21:30;;;;;;;19.25;9.23;;;;;;;;;;4790713;29;20719;-84
2023/06/17 19:23:56;;;;;;;16.02;9.80;;;;;;;;;;4780399;29;20031;-83
